createdAt,value
2022-07-29T00:02:21.661Z,0.88
2022-07-29T00:04:50.044Z,0.93
2022-07-29T00:07:18.521Z,1.23
2022-07-29T00:09:51.743Z,0.90
2022-07-29T00:12:25.035Z,1.05
2022-07-29T00:14:55.006Z,1.02
2022-07-29T00:17:23.563Z,1.20
2022-07-29T00:19:52.028Z,1.13
2022-07-29T00:22:21.147Z,1.00
2022-07-29T00:24:51.389Z,1.00
2022-07-29T00:27:20.106Z,1.38
2022-07-29T00:29:48.561Z,0.98
2022-07-29T00:32:16.933Z,0.90
2022-07-29T00:35:02.540Z,1.00
2022-07-29T00:37:30.865Z,1.00
2022-07-29T00:40:00.653Z,1.00
2022-07-29T00:42:29.077Z,0.90
2022-07-29T00:44:57.433Z,1.10
2022-07-29T00:47:25.734Z,1.20
2022-07-29T00:49:54.104Z,0.98
2022-07-29T00:52:23.087Z,1.10
2022-07-29T00:54:51.477Z,1.00
2022-07-29T00:57:22.219Z,1.00
2022-07-29T00:59:50.540Z,1.00
2022-07-29T01:02:19.065Z,0.75
2022-07-29T01:04:47.576Z,0.90
2022-07-29T01:07:16.191Z,1.02
2022-07-29T01:09:47.176Z,0.95
2022-07-29T01:12:19.605Z,1.00
2022-07-29T01:14:51.269Z,1.10
2022-07-29T01:17:23.976Z,1.00
2022-07-29T01:20:05.176Z,0.90
2022-07-29T01:22:58.427Z,1.15
2022-07-29T01:25:51.634Z,1.10
2022-07-29T01:28:56.165Z,1.10
2022-07-29T01:31:36.492Z,0.95
2022-07-29T01:34:12.319Z,1.10
2022-07-29T01:36:47.641Z,1.25
2022-07-29T01:39:20.987Z,0.98
2022-07-29T01:41:55.203Z,1.10
2022-07-29T01:44:29.761Z,0.80
2022-07-29T01:47:03.813Z,1.10
2022-07-29T01:49:37.870Z,1.20
2022-07-29T01:52:11.181Z,1.10
2022-07-29T01:54:43.984Z,1.10
2022-07-29T01:57:19.471Z,1.20
2022-07-29T01:59:50.852Z,1.20
2022-07-29T02:02:21.539Z,1.15
2022-07-29T02:04:51.814Z,1.00
2022-07-29T02:07:23.603Z,1.00
2022-07-29T02:09:54.222Z,1.00
2022-07-29T02:12:24.192Z,1.00
2022-07-29T02:14:56.011Z,1.10
2022-07-29T02:17:28.458Z,1.10
2022-07-29T02:19:59.753Z,1.13
2022-07-29T02:22:30.403Z,1.10
2022-07-29T02:25:00.847Z,1.10
2022-07-29T02:27:30.570Z,1.15
2022-07-29T02:30:03.182Z,1.10
2022-07-29T02:32:32.827Z,0.98
2022-07-29T02:35:01.729Z,0.98
2022-07-29T02:37:31.392Z,1.02
2022-07-29T02:40:01.245Z,1.00
2022-07-29T02:42:31.172Z,1.00
2022-07-29T02:45:00.929Z,1.15
2022-07-29T02:47:42.081Z,1.00
2022-07-29T02:50:14.266Z,1.10
2022-07-29T02:52:47.355Z,1.00
2022-07-29T02:55:21.266Z,1.00
2022-07-29T02:57:54.733Z,0.98
2022-07-29T03:00:27.825Z,1.17
2022-07-29T03:02:59.025Z,1.15
2022-07-29T03:05:27.940Z,1.10
2022-07-29T03:07:59.819Z,1.02
2022-07-29T03:10:29.527Z,1.00
2022-07-29T03:12:58.975Z,1.17
2022-07-29T03:15:29.639Z,1.00
2022-07-29T03:17:58.875Z,1.20
2022-07-29T03:20:27.884Z,1.00
2022-07-29T03:22:56.446Z,1.00
2022-07-29T03:25:24.778Z,1.13
2022-07-29T03:27:53.311Z,1.20
2022-07-29T03:30:22.468Z,1.05
2022-07-29T03:32:53.464Z,1.05
2022-07-29T03:35:22.341Z,0.90
2022-07-29T03:37:51.206Z,1.05
2022-07-29T03:40:25.323Z,0.90
2022-07-29T03:42:56.147Z,1.10
2022-07-29T03:45:26.035Z,1.10
2022-07-29T03:48:01.403Z,1.30
2022-07-29T03:50:30.989Z,1.20
2022-07-29T03:53:00.314Z,1.23
2022-07-29T03:55:30.584Z,0.90
2022-07-29T03:57:59.837Z,1.02
2022-07-29T04:00:29.055Z,1.10
2022-07-29T04:02:59.375Z,1.10
2022-07-29T04:05:27.812Z,1.10
2022-07-29T04:07:56.121Z,1.30
2022-07-29T04:10:31.545Z,1.15
2022-07-29T04:13:00.890Z,1.10
2022-07-29T04:15:31.204Z,1.35
2022-07-29T04:18:01.751Z,1.40
2022-07-29T04:20:30.210Z,1.05
2022-07-29T04:22:58.557Z,1.42
2022-07-29T04:25:26.912Z,1.17
2022-07-29T04:28:04.487Z,1.15
2022-07-29T04:30:34.466Z,1.23
2022-07-29T04:33:05.952Z,1.25
2022-07-29T04:35:38.541Z,0.98
2022-07-29T04:38:15.809Z,1.08
2022-07-29T04:40:45.657Z,1.38
2022-07-29T04:43:16.094Z,1.30
2022-07-29T04:45:44.530Z,1.30
2022-07-29T04:48:14.412Z,1.27
2022-07-29T04:50:43.226Z,1.20
2022-07-29T04:53:11.549Z,1.63
2022-07-29T04:55:39.910Z,1.60
2022-07-29T04:58:08.585Z,1.55
2022-07-29T05:00:37.280Z,1.33
2022-07-29T05:03:05.851Z,1.27
2022-07-29T05:05:35.702Z,1.48
2022-07-29T05:08:04.021Z,1.50
2022-07-29T05:10:32.353Z,1.50
2022-07-29T05:13:00.935Z,1.70
2022-07-29T05:15:29.256Z,1.60
2022-07-29T05:17:57.904Z,1.33
2022-07-29T05:20:29.247Z,1.42
2022-07-29T05:22:59.173Z,1.67
2022-07-29T05:25:43.380Z,1.58
2022-07-29T05:28:13.228Z,1.42
2022-07-29T05:30:41.613Z,1.60
2022-07-29T05:33:34.793Z,1.50
2022-07-29T05:36:00.559Z,1.35
2022-07-29T05:38:31.666Z,1.30
2022-07-29T05:41:00.826Z,1.20
2022-07-29T05:43:29.434Z,1.30
2022-07-29T05:45:58.055Z,1.45
2022-07-29T05:48:26.553Z,1.33
2022-07-29T05:50:54.964Z,1.30
2022-07-29T05:53:23.433Z,1.40
2022-07-29T05:55:53.611Z,1.35
2022-07-29T05:58:22.503Z,1.50
2022-07-29T06:00:50.986Z,1.50
2022-07-29T06:03:19.312Z,1.20
2022-07-29T06:05:47.673Z,1.15
2022-07-29T06:08:16.023Z,1.30
2022-07-29T06:10:44.482Z,1.35
2022-07-29T06:13:16.981Z,1.38
2022-07-29T06:15:46.523Z,1.30
2022-07-29T06:18:15.088Z,1.17
2022-07-29T06:20:43.641Z,1.20
2022-07-29T06:23:12.003Z,1.00
2022-07-29T06:25:41.813Z,1.30
2022-07-29T06:28:10.195Z,1.20
2022-07-29T06:30:40.262Z,1.20
2022-07-29T06:33:08.644Z,1.10
2022-07-29T06:35:42.026Z,1.40
2022-07-29T06:38:31.161Z,0.95
2022-07-29T06:41:04.980Z,1.05
2022-07-29T06:43:52.305Z,1.00
2022-07-29T06:46:25.396Z,1.25
2022-07-29T06:48:54.546Z,1.05
2022-07-29T06:51:24.159Z,1.10
2022-07-29T06:54:01.653Z,1.25
2022-07-29T06:56:38.392Z,1.35
2022-07-29T06:59:08.905Z,1.45
2022-07-29T07:01:39.321Z,1.02
2022-07-29T07:04:09.727Z,1.27
2022-07-29T07:06:38.827Z,1.20
2022-07-29T07:09:07.341Z,1.40
2022-07-29T07:11:35.798Z,1.30
2022-07-29T07:14:04.545Z,1.80
2022-07-29T07:16:33.629Z,1.20
2022-07-29T07:19:03.503Z,1.50
2022-07-29T07:21:32.090Z,1.38
2022-07-29T07:24:00.980Z,1.52
2022-07-29T07:26:29.627Z,1.75
2022-07-29T07:28:58.098Z,1.40
2022-07-29T07:31:26.520Z,1.38
2022-07-29T07:33:55.486Z,1.40
2022-07-29T07:36:25.674Z,1.45
2022-07-29T07:38:53.988Z,1.70
2022-07-29T07:41:22.670Z,1.67
2022-07-29T07:43:51.146Z,1.70
2022-07-29T07:46:19.573Z,1.55
2022-07-29T07:48:48.014Z,1.40
2022-07-29T07:51:16.458Z,1.58
2022-07-29T07:53:46.355Z,1.63
2022-07-29T07:56:14.641Z,1.58
2022-07-29T07:58:43.008Z,1.70
2022-07-29T08:01:11.877Z,1.55
2022-07-29T08:03:40.562Z,1.50
2022-07-29T08:06:09.829Z,1.52
2022-07-29T08:08:38.237Z,1.60
2022-07-29T08:11:09.791Z,2.00
2022-07-29T08:13:39.814Z,1.63
2022-07-29T08:16:16.417Z,1.50
2022-07-29T08:18:46.502Z,1.60
2022-07-29T08:21:15.959Z,1.67
2022-07-29T08:23:59.577Z,1.55
2022-07-29T08:26:30.584Z,1.50
2022-07-29T08:28:58.970Z,1.38
2022-07-29T08:31:27.412Z,1.67
2022-07-29T08:33:57.393Z,1.70
2022-07-29T08:36:27.170Z,1.70
2022-07-29T08:38:55.522Z,1.60
2022-07-29T08:41:24.248Z,1.77
2022-07-29T08:43:54.606Z,1.40
2022-07-29T08:46:24.401Z,1.80
2022-07-29T08:48:52.947Z,1.50
2022-07-29T08:51:22.450Z,1.50
2022-07-29T08:53:52.264Z,1.40
2022-07-29T08:56:21.839Z,1.27
2022-07-29T08:58:52.166Z,1.50
2022-07-29T09:01:35.882Z,1.90
2022-07-29T09:04:14.071Z,1.58
2022-07-29T09:06:46.760Z,1.50
2022-07-29T09:09:15.867Z,1.63
2022-07-29T09:11:45.155Z,1.40
2022-07-29T09:14:14.937Z,1.42
2022-07-29T09:16:54.607Z,1.40
2022-07-29T09:19:29.350Z,1.35
2022-07-29T09:22:03.546Z,1.30
2022-07-29T09:24:44.285Z,1.77
2022-07-29T09:27:24.173Z,1.52
2022-07-29T09:30:02.178Z,1.30
2022-07-29T09:32:32.293Z,1.30
2022-07-29T09:35:24.497Z,1.70
2022-07-29T09:37:52.999Z,1.63
2022-07-29T09:40:22.748Z,1.50
2022-07-29T09:42:51.861Z,1.40
2022-07-29T09:45:30.362Z,1.60
2022-07-29T09:48:04.020Z,1.48
2022-07-29T09:50:40.875Z,1.70
2022-07-29T09:53:11.015Z,1.65
2022-07-29T09:55:52.463Z,1.63
2022-07-29T09:58:22.643Z,1.52
2022-07-29T10:00:53.423Z,1.52
2022-07-29T10:03:23.795Z,1.45
2022-07-29T10:06:07.803Z,1.42
2022-07-29T10:08:36.206Z,1.77
2022-07-29T10:11:14.871Z,1.50
2022-07-29T10:13:43.996Z,1.50
2022-07-29T10:16:14.052Z,1.65
2022-07-29T10:18:45.729Z,1.70
2022-07-29T10:21:34.824Z,1.77
2022-07-29T10:24:03.868Z,2.00
2022-07-29T10:26:32.501Z,1.40
2022-07-29T10:29:00.895Z,1.70
2022-07-29T10:31:34.129Z,1.40
2022-07-29T10:34:16.051Z,1.65
2022-07-29T10:36:56.926Z,1.85
2022-07-29T10:39:45.157Z,1.52
2022-07-29T10:42:29.614Z,1.80
2022-07-29T10:45:05.678Z,1.80
2022-07-29T10:47:35.310Z,1.75
2022-07-29T10:50:07.310Z,1.55
2022-07-29T10:52:58.834Z,1.70
2022-07-29T10:55:35.774Z,1.60
2022-07-29T10:58:15.697Z,1.75
2022-07-29T11:00:46.714Z,1.70
2022-07-29T11:03:49.777Z,1.50
2022-07-29T11:06:26.463Z,1.90
2022-07-29T11:09:19.993Z,1.90
2022-07-29T11:11:51.343Z,1.88
2022-07-29T11:14:26.365Z,1.75
2022-07-29T11:17:06.406Z,1.63
2022-07-29T11:19:36.383Z,1.60
2022-07-29T11:22:10.663Z,1.75
2022-07-29T11:24:50.168Z,2.00
2022-07-29T11:27:21.238Z,1.88
2022-07-29T11:29:53.501Z,1.60
2022-07-29T11:32:24.157Z,1.70
2022-07-29T11:35:17.126Z,1.90
2022-07-29T11:37:52.756Z,2.25
2022-07-29T11:40:37.300Z,2.03
2022-07-29T11:43:07.289Z,1.80
2022-07-29T11:45:48.456Z,1.80
2022-07-29T11:48:29.340Z,1.90
2022-07-29T11:51:02.886Z,2.00
2022-07-29T11:53:33.438Z,2.08
2022-07-29T11:56:03.770Z,2.00
2022-07-29T11:58:33.101Z,2.00
2022-07-29T12:01:04.831Z,2.03
2022-07-29T12:03:35.784Z,1.98
2022-07-29T12:06:13.434Z,1.80
2022-07-29T12:08:45.285Z,2.10
2022-07-29T12:11:22.995Z,1.95
2022-07-29T12:13:52.795Z,2.30
2022-07-29T12:16:26.033Z,1.85
2022-07-29T12:18:59.213Z,2.13
2022-07-29T12:21:29.008Z,2.20
2022-07-29T12:24:08.786Z,2.00
2022-07-29T12:26:38.149Z,2.00
2022-07-29T12:29:11.364Z,2.00
2022-07-29T12:31:45.457Z,2.08
2022-07-29T12:34:15.331Z,2.10
2022-07-29T12:36:44.745Z,2.00
2022-07-29T12:39:14.698Z,1.80
2022-07-29T12:41:43.058Z,2.13
2022-07-29T12:44:11.930Z,1.88
2022-07-29T12:46:40.432Z,2.10
2022-07-29T12:49:08.956Z,2.20
2022-07-29T12:51:41.371Z,2.45
2022-07-29T12:54:11.709Z,2.30
2022-07-29T12:56:43.523Z,2.25
2022-07-29T12:59:17.879Z,2.03
2022-07-29T13:01:48.174Z,2.00
2022-07-29T13:04:28.226Z,2.28
2022-07-29T13:07:06.831Z,2.20
2022-07-29T13:09:43.085Z,1.90
2022-07-29T13:12:14.368Z,1.98
2022-07-29T13:14:44.337Z,1.80
2022-07-29T13:17:14.706Z,2.17
2022-07-29T13:19:44.341Z,2.10
2022-07-29T13:22:16.242Z,1.92
2022-07-29T13:24:53.872Z,1.83
2022-07-29T13:27:24.912Z,1.90
2022-07-29T13:29:53.539Z,2.08
2022-07-29T13:32:27.904Z,2.00
2022-07-29T13:34:58.720Z,1.90
2022-07-29T13:37:30.686Z,2.00
2022-07-29T13:40:00.312Z,2.22
2022-07-29T13:42:30.183Z,2.28
2022-07-29T13:44:58.607Z,2.05
2022-07-29T13:47:32.592Z,2.10
2022-07-29T13:50:01.837Z,2.05
2022-07-29T13:52:30.359Z,1.90
2022-07-29T13:54:58.963Z,2.22
2022-07-29T13:57:27.456Z,2.00
2022-07-29T13:59:57.284Z,1.88
2022-07-29T14:02:26.416Z,1.92
2022-07-29T14:04:55.509Z,1.80
2022-07-29T14:07:24.737Z,1.98
2022-07-29T14:09:53.350Z,1.83
2022-07-29T14:12:22.079Z,2.33
2022-07-29T14:14:50.460Z,1.83
2022-07-29T14:17:20.357Z,2.13
2022-07-29T14:19:48.996Z,1.95
2022-07-29T14:22:19.737Z,2.08
2022-07-29T14:24:50.858Z,1.85
2022-07-29T14:27:20.012Z,2.33
2022-07-29T14:30:07.467Z,2.20
2022-07-29T14:32:37.267Z,2.20
2022-07-29T14:35:06.347Z,2.10
2022-07-29T14:37:40.297Z,2.10
2022-07-29T14:40:10.271Z,1.80
2022-07-29T14:42:39.282Z,2.10
2022-07-29T14:45:09.126Z,1.83
2022-07-29T14:47:39.372Z,2.00
2022-07-29T14:50:09.192Z,2.13
2022-07-29T14:52:37.798Z,2.13
2022-07-29T14:55:16.661Z,2.33
2022-07-29T14:57:49.158Z,2.03
2022-07-29T15:00:17.970Z,2.05
2022-07-29T15:03:01.522Z,2.05
2022-07-29T15:05:30.916Z,2.17
2022-07-29T15:07:59.890Z,1.98
2022-07-29T15:10:29.163Z,2.38
2022-07-29T15:12:58.489Z,2.22
2022-07-29T15:15:27.045Z,1.88
2022-07-29T15:17:56.772Z,2.20
2022-07-29T15:20:26.377Z,2.30
2022-07-29T15:22:56.509Z,2.20
2022-07-29T15:25:25.164Z,2.30
2022-07-29T15:27:55.637Z,2.20
2022-07-29T15:30:32.772Z,2.10
2022-07-29T15:33:04.435Z,2.15
2022-07-29T15:35:33.014Z,1.98
2022-07-29T15:38:02.239Z,2.38
2022-07-29T15:40:30.763Z,1.90
2022-07-29T15:43:01.834Z,2.30
2022-07-29T15:45:31.734Z,1.90
2022-07-29T15:48:02.380Z,2.05
2022-07-29T15:50:30.734Z,2.53
2022-07-29T15:52:59.647Z,2.50
2022-07-29T15:55:28.296Z,2.30
2022-07-29T15:58:00.504Z,1.83
2022-07-29T16:00:29.621Z,1.70
2022-07-29T16:02:57.999Z,2.40
2022-07-29T16:05:29.725Z,2.10
2022-07-29T16:08:00.685Z,2.20
2022-07-29T16:10:29.100Z,2.28
2022-07-29T16:12:57.429Z,2.17
2022-07-29T16:15:25.915Z,2.08
2022-07-29T16:17:54.362Z,2.30
2022-07-29T16:20:23.369Z,2.33
2022-07-29T16:22:53.140Z,2.35
2022-07-29T16:25:29.598Z,2.25
2022-07-29T16:28:08.538Z,2.30
2022-07-29T16:30:37.542Z,2.28
2022-07-29T16:33:08.357Z,2.35
2022-07-29T16:35:40.155Z,2.33
2022-07-29T16:38:10.081Z,2.53
2022-07-29T16:40:39.034Z,2.35
2022-07-29T16:43:07.516Z,2.40
2022-07-29T16:45:45.297Z,2.25
2022-07-29T16:48:15.080Z,2.45
2022-07-29T16:50:46.385Z,2.38
2022-07-29T16:53:16.118Z,2.20
2022-07-29T16:55:44.683Z,2.38
2022-07-29T16:58:13.335Z,2.20
2022-07-29T17:00:41.870Z,2.50
2022-07-29T17:03:10.346Z,2.40
2022-07-29T17:05:50.301Z,2.50
2022-07-29T17:08:22.069Z,1.83
2022-07-29T17:10:50.471Z,2.40
2022-07-29T17:13:18.824Z,2.28
2022-07-29T17:15:47.144Z,2.00
2022-07-29T17:18:15.481Z,2.50
2022-07-29T17:20:43.839Z,2.13
2022-07-29T17:23:12.174Z,2.30
2022-07-29T17:25:42.583Z,1.92
2022-07-29T17:28:10.913Z,2.10
2022-07-29T17:30:39.265Z,2.13
2022-07-29T17:33:07.595Z,2.45
2022-07-29T17:35:53.308Z,2.25
2022-07-29T17:38:21.671Z,2.22
2022-07-29T17:40:51.409Z,2.20
2022-07-29T17:43:19.708Z,2.30
2022-07-29T17:45:49.589Z,2.63
2022-07-29T17:48:20.050Z,2.70
2022-07-29T17:50:49.094Z,2.33
2022-07-29T17:53:17.839Z,2.50
2022-07-29T17:55:46.486Z,2.20
2022-07-29T17:58:16.880Z,2.40
2022-07-29T18:00:45.646Z,2.00
2022-07-29T18:03:14.130Z,2.78
2022-07-29T18:05:42.903Z,2.42
2022-07-29T18:08:11.515Z,2.13
2022-07-29T18:10:41.481Z,2.30
2022-07-29T18:13:09.836Z,2.28
2022-07-29T18:15:39.801Z,2.17
2022-07-29T18:18:08.477Z,2.22
2022-07-29T18:20:36.857Z,2.05
2022-07-29T18:23:05.297Z,2.10
2022-07-29T18:25:34.166Z,2.20
2022-07-29T18:28:03.112Z,2.22
2022-07-29T18:30:33.862Z,2.38
2022-07-29T18:33:21.322Z,2.00
2022-07-29T18:35:51.323Z,2.20
2022-07-29T18:38:21.974Z,2.30
2022-07-29T18:40:50.948Z,2.35
2022-07-29T18:43:19.256Z,2.47
2022-07-29T18:45:48.559Z,2.35
2022-07-29T18:48:20.197Z,2.03
2022-07-29T18:50:48.634Z,2.10
2022-07-29T18:53:17.396Z,2.10
2022-07-29T18:55:45.904Z,2.30
2022-07-29T18:58:14.244Z,2.25
2022-07-29T19:00:42.651Z,2.30
2022-07-29T19:03:11.081Z,2.25
2022-07-29T19:05:40.951Z,2.00
2022-07-29T19:08:09.282Z,2.47
2022-07-29T19:10:37.652Z,2.42
2022-07-29T19:13:06.303Z,2.10
2022-07-29T19:15:34.620Z,2.30
2022-07-29T19:18:03.031Z,1.98
2022-07-29T19:20:31.402Z,2.03
2022-07-29T19:23:01.196Z,1.88
2022-07-29T19:25:29.983Z,2.33
2022-07-29T19:27:58.403Z,2.25
2022-07-29T19:30:26.960Z,2.40
2022-07-29T19:32:55.297Z,2.10
2022-07-29T19:35:28.392Z,2.05
2022-07-29T19:37:58.896Z,2.20
2022-07-29T19:40:29.366Z,1.90
2022-07-29T19:42:57.889Z,2.20
2022-07-29T19:45:26.873Z,2.10
2022-07-29T19:48:00.793Z,2.00
2022-07-29T19:50:30.019Z,1.70
2022-07-29T19:52:58.498Z,1.98
2022-07-29T19:55:28.463Z,2.30
2022-07-29T19:57:57.037Z,2.00
2022-07-29T20:00:26.033Z,1.92
2022-07-29T20:02:54.498Z,2.00
2022-07-29T20:05:27.905Z,2.30
2022-07-29T20:07:56.700Z,1.70
2022-07-29T20:10:25.588Z,1.80
2022-07-29T20:12:55.461Z,2.17
2022-07-29T20:15:24.049Z,2.28
2022-07-29T20:17:56.888Z,1.95
2022-07-29T20:20:26.625Z,1.92
2022-07-29T20:22:55.190Z,1.85
2022-07-29T20:25:23.725Z,1.80
2022-07-29T20:27:52.645Z,1.90
2022-07-29T20:30:23.515Z,2.10
2022-07-29T20:32:52.170Z,1.95
2022-07-29T20:35:22.484Z,1.70
2022-07-29T20:37:55.928Z,2.10
2022-07-29T20:40:25.231Z,2.13
2022-07-29T20:42:53.626Z,1.90
2022-07-29T20:45:23.914Z,1.90
2022-07-29T20:47:52.486Z,2.10
2022-07-29T20:50:23.856Z,1.77
2022-07-29T20:52:52.751Z,2.00
2022-07-29T20:55:21.184Z,2.15
2022-07-29T20:57:49.563Z,2.28
2022-07-29T21:00:18.293Z,2.17
2022-07-29T21:02:48.111Z,2.00
2022-07-29T21:05:16.608Z,2.17
2022-07-29T21:07:44.994Z,2.30
2022-07-29T21:10:14.355Z,1.90
2022-07-29T21:12:43.224Z,2.22
2022-07-29T21:15:13.688Z,2.10
2022-07-29T21:17:46.914Z,2.15
2022-07-29T21:20:18.589Z,1.90
2022-07-29T21:22:47.067Z,2.30
2022-07-29T21:25:15.450Z,2.08
2022-07-29T21:28:01.246Z,1.80
2022-07-29T21:30:29.568Z,1.98
2022-07-29T21:32:57.925Z,2.03
2022-07-29T21:35:58.940Z,1.85
2022-07-29T21:38:17.080Z,1.80
2022-07-29T21:40:46.194Z,1.98
2022-07-29T21:43:14.997Z,2.00
2022-07-29T21:45:43.890Z,1.88
2022-07-29T21:48:12.329Z,2.00
2022-07-29T21:50:42.118Z,2.22
2022-07-29T21:53:11.114Z,2.05
2022-07-29T21:55:42.563Z,2.05
2022-07-29T21:58:12.354Z,2.20
2022-07-29T22:00:41.418Z,2.15
2022-07-29T22:03:10.194Z,2.05
2022-07-29T22:05:38.602Z,2.00
2022-07-29T22:08:08.758Z,2.17
2022-07-29T22:10:37.111Z,2.03
2022-07-29T22:13:05.619Z,1.85
2022-07-29T22:15:34.069Z,1.92
2022-07-29T22:18:02.620Z,2.17
2022-07-29T22:20:31.031Z,1.95
2022-07-29T22:22:59.436Z,2.35
2022-07-29T22:25:30.082Z,2.55
2022-07-29T22:27:58.431Z,2.17
2022-07-29T22:30:26.968Z,2.30
2022-07-29T22:32:55.332Z,2.28
2022-07-29T22:35:23.661Z,2.40
2022-07-29T22:37:53.400Z,2.50
2022-07-29T22:40:21.829Z,2.53
2022-07-29T22:42:51.573Z,2.58
2022-07-29T22:45:20.052Z,2.53
2022-07-29T22:47:48.827Z,2.65
2022-07-29T22:50:17.603Z,2.95
2022-07-29T22:52:46.411Z,2.90
2022-07-29T22:55:15.421Z,2.55
2022-07-29T22:57:44.307Z,2.47
2022-07-29T23:00:15.346Z,2.45
2022-07-29T23:02:43.667Z,2.83
2022-07-29T23:05:16.544Z,2.20
2022-07-29T23:07:44.931Z,2.60
2022-07-29T23:10:13.300Z,2.70
2022-07-29T23:12:41.634Z,3.17
2022-07-29T23:15:10.247Z,2.58
2022-07-29T23:17:39.964Z,2.33
2022-07-29T23:20:09.996Z,2.78
2022-07-29T23:22:38.582Z,2.67
2022-07-29T23:25:07.927Z,2.40
2022-07-29T23:27:36.250Z,2.50
2022-07-29T23:30:06.248Z,2.72
2022-07-29T23:32:34.571Z,2.50
2022-07-29T23:35:05.635Z,2.47
2022-07-29T23:37:34.083Z,2.53
2022-07-29T23:40:02.523Z,2.72
2022-07-29T23:42:30.912Z,2.72
2022-07-29T23:44:59.298Z,2.80
2022-07-29T23:47:29.120Z,3.10
2022-07-29T23:49:57.658Z,2.65
2022-07-29T23:52:27.642Z,2.63
2022-07-29T23:55:36.983Z,2.30
2022-07-29T23:57:45.699Z,2.33
